sensor_id;sensor_type;location;lat;lon;timestamp;P1;durP1;ratioP1;P2;durP2;ratioP2
37943;SDS011;23767;42.024;23.086;2023-04-26T00:01:35;1.90;;;1.20;;
37943;SDS011;23767;42.024;23.086;2023-04-26T00:04:02;2.97;;;1.13;;
37943;SDS011;23767;42.024;23.086;2023-04-26T00:06:28;3.10;;;1.30;;
37943;SDS011;23767;42.024;23.086;2023-04-26T00:08:54;3.22;;;1.17;;
37943;SDS011;23767;42.024;23.086;2023-04-26T00:11:20;4.65;;;1.33;;
37943;SDS011;23767;42.024;23.086;2023-04-26T00:13:46;3.10;;;1.40;;
37943;SDS011;23767;42.024;23.086;2023-04-26T00:16:13;2.55;;;1.10;;
37943;SDS011;23767;42.024;23.086;2023-04-26T00:18:39;2.60;;;1.20;;
37943;SDS011;23767;42.024;23.086;2023-04-26T00:21:05;2.33;;;0.95;;
37943;SDS011;23767;42.024;23.086;2023-04-26T00:23:31;2.40;;;0.95;;
37943;SDS011;23767;42.024;23.086;2023-04-26T00:25:57;2.33;;;1.02;;
37943;SDS011;23767;42.024;23.086;2023-04-26T00:28:23;3.53;;;1.10;;
37943;SDS011;23767;42.024;23.086;2023-04-26T00:30:49;4.18;;;1.33;;
37943;SDS011;23767;42.024;23.086;2023-04-26T00:33:15;2.95;;;1.13;;
37943;SDS011;23767;42.024;23.086;2023-04-26T00:35:41;1.70;;;0.90;;
37943;SDS011;23767;42.024;23.086;2023-04-26T00:38:07;3.78;;;1.45;;
37943;SDS011;23767;42.024;23.086;2023-04-26T00:40:33;2.20;;;1.02;;
37943;SDS011;23767;42.024;23.086;2023-04-26T00:42:59;2.47;;;1.02;;
37943;SDS011;23767;42.024;23.086;2023-04-26T00:45:25;2.67;;;0.93;;
37943;SDS011;23767;42.024;23.086;2023-04-26T00:47:51;1.65;;;0.95;;
37943;SDS011;23767;42.024;23.086;2023-04-26T00:50:18;2.85;;;0.95;;
37943;SDS011;23767;42.024;23.086;2023-04-26T00:52:44;2.40;;;0.93;;
37943;SDS011;23767;42.024;23.086;2023-04-26T00:55:11;1.95;;;0.82;;
37943;SDS011;23767;42.024;23.086;2023-04-26T00:57:38;1.95;;;1.00;;
37943;SDS011;23767;42.024;23.086;2023-04-26T01:00:05;2.25;;;1.05;;
37943;SDS011;23767;42.024;23.086;2023-04-26T01:02:32;1.40;;;0.95;;
37943;SDS011;23767;42.024;23.086;2023-04-26T01:04:58;2.83;;;1.00;;
37943;SDS011;23767;42.024;23.086;2023-04-26T01:07:24;1.92;;;0.85;;
37943;SDS011;23767;42.024;23.086;2023-04-26T01:09:50;1.88;;;1.23;;
37943;SDS011;23767;42.024;23.086;2023-04-26T01:12:16;4.95;;;1.13;;
37943;SDS011;23767;42.024;23.086;2023-04-26T01:14:42;2.10;;;1.00;;
37943;SDS011;23767;42.024;23.086;2023-04-26T01:17:09;2.00;;;1.00;;
37943;SDS011;23767;42.024;23.086;2023-04-26T01:19:35;2.08;;;1.10;;
37943;SDS011;23767;42.024;23.086;2023-04-26T01:22:04;2.20;;;1.00;;
37943;SDS011;23767;42.024;23.086;2023-04-26T01:24:30;2.20;;;1.05;;
37943;SDS011;23767;42.024;23.086;2023-04-26T01:26:57;1.73;;;0.90;;
37943;SDS011;23767;42.024;23.086;2023-04-26T01:29:23;1.95;;;0.90;;
37943;SDS011;23767;42.024;23.086;2023-04-26T01:31:51;2.30;;;1.00;;
37943;SDS011;23767;42.024;23.086;2023-04-26T01:34:17;1.95;;;0.95;;
37943;SDS011;23767;42.024;23.086;2023-04-26T01:36:43;2.25;;;0.98;;
37943;SDS011;23767;42.024;23.086;2023-04-26T01:39:09;1.35;;;0.90;;
37943;SDS011;23767;42.024;23.086;2023-04-26T01:41:35;1.55;;;0.90;;
37943;SDS011;23767;42.024;23.086;2023-04-26T01:44:01;1.52;;;0.80;;
37943;SDS011;23767;42.024;23.086;2023-04-26T01:46:27;2.55;;;1.13;;
37943;SDS011;23767;42.024;23.086;2023-04-26T01:48:53;2.90;;;0.93;;
37943;SDS011;23767;42.024;23.086;2023-04-26T01:51:21;4.07;;;1.10;;
37943;SDS011;23767;42.024;23.086;2023-04-26T01:53:47;2.03;;;0.80;;
37943;SDS011;23767;42.024;23.086;2023-04-26T01:56:13;2.05;;;1.00;;
37943;SDS011;23767;42.024;23.086;2023-04-26T01:58:40;1.83;;;0.98;;
37943;SDS011;23767;42.024;23.086;2023-04-26T02:01:06;2.20;;;0.80;;
37943;SDS011;23767;42.024;23.086;2023-04-26T02:03:33;2.80;;;1.05;;
37943;SDS011;23767;42.024;23.086;2023-04-26T02:05:59;1.77;;;0.90;;
37943;SDS011;23767;42.024;23.086;2023-04-26T02:08:25;1.63;;;1.00;;
37943;SDS011;23767;42.024;23.086;2023-04-26T02:10:51;3.63;;;1.30;;
37943;SDS011;23767;42.024;23.086;2023-04-26T02:13:17;2.47;;;1.02;;
37943;SDS011;23767;42.024;23.086;2023-04-26T02:15:49;4.05;;;1.30;;
37943;SDS011;23767;42.024;23.086;2023-04-26T02:20:42;2.58;;;1.40;;
37943;SDS011;23767;42.024;23.086;2023-04-26T02:23:08;2.70;;;1.10;;
37943;SDS011;23767;42.024;23.086;2023-04-26T02:25:35;1.92;;;0.90;;
37943;SDS011;23767;42.024;23.086;2023-04-26T02:28:02;3.35;;;1.30;;
37943;SDS011;23767;42.024;23.086;2023-04-26T02:30:28;4.68;;;2.50;;
37943;SDS011;23767;42.024;23.086;2023-04-26T02:32:54;3.60;;;2.20;;
37943;SDS011;23767;42.024;23.086;2023-04-26T02:35:21;5.75;;;2.20;;
37943;SDS011;23767;42.024;23.086;2023-04-26T02:37:47;4.00;;;2.15;;
37943;SDS011;23767;42.024;23.086;2023-04-26T02:40:14;4.70;;;2.85;;
37943;SDS011;23767;42.024;23.086;2023-04-26T02:42:41;7.13;;;2.30;;
37943;SDS011;23767;42.024;23.086;2023-04-26T02:45:07;4.57;;;2.10;;
37943;SDS011;23767;42.024;23.086;2023-04-26T02:47:33;3.08;;;1.33;;
37943;SDS011;23767;42.024;23.086;2023-04-26T02:50:04;2.38;;;1.20;;
37943;SDS011;23767;42.024;23.086;2023-04-26T02:52:30;7.53;;;1.58;;
37943;SDS011;23767;42.024;23.086;2023-04-26T02:54:56;3.00;;;1.30;;
37943;SDS011;23767;42.024;23.086;2023-04-26T02:57:22;3.78;;;1.30;;
37943;SDS011;23767;42.024;23.086;2023-04-26T02:59:48;3.45;;;1.48;;
37943;SDS011;23767;42.024;23.086;2023-04-26T03:02:14;2.72;;;1.10;;
37943;SDS011;23767;42.024;23.086;2023-04-26T03:04:40;2.05;;;1.10;;
37943;SDS011;23767;42.024;23.086;2023-04-26T03:07:06;2.40;;;1.23;;
37943;SDS011;23767;42.024;23.086;2023-04-26T03:09:32;5.30;;;2.00;;
37943;SDS011;23767;42.024;23.086;2023-04-26T03:11:59;4.22;;;2.10;;
37943;SDS011;23767;42.024;23.086;2023-04-26T03:14:25;6.00;;;2.13;;
37943;SDS011;23767;42.024;23.086;2023-04-26T03:16:51;4.18;;;1.90;;
37943;SDS011;23767;42.024;23.086;2023-04-26T03:19:17;2.75;;;1.20;;
37943;SDS011;23767;42.024;23.086;2023-04-26T03:21:43;3.95;;;1.27;;
37943;SDS011;23767;42.024;23.086;2023-04-26T03:24:09;3.40;;;1.50;;
37943;SDS011;23767;42.024;23.086;2023-04-26T03:26:35;2.22;;;1.20;;
37943;SDS011;23767;42.024;23.086;2023-04-26T03:29:02;3.90;;;1.40;;
37943;SDS011;23767;42.024;23.086;2023-04-26T03:31:28;3.00;;;1.58;;
37943;SDS011;23767;42.024;23.086;2023-04-26T03:33:54;2.65;;;1.27;;
37943;SDS011;23767;42.024;23.086;2023-04-26T03:36:20;2.22;;;1.23;;
37943;SDS011;23767;42.024;23.086;2023-04-26T03:38:46;2.63;;;1.33;;
37943;SDS011;23767;42.024;23.086;2023-04-26T03:41:12;2.53;;;1.40;;
37943;SDS011;23767;42.024;23.086;2023-04-26T03:43:38;2.75;;;1.23;;
37943;SDS011;23767;42.024;23.086;2023-04-26T03:46:04;3.35;;;1.30;;
37943;SDS011;23767;42.024;23.086;2023-04-26T03:48:30;2.88;;;1.40;;
37943;SDS011;23767;42.024;23.086;2023-04-26T03:50:56;3.53;;;1.23;;
37943;SDS011;23767;42.024;23.086;2023-04-26T03:53:22;2.90;;;1.40;;
37943;SDS011;23767;42.024;23.086;2023-04-26T03:55:48;2.90;;;1.27;;
37943;SDS011;23767;42.024;23.086;2023-04-26T03:58:14;3.30;;;1.15;;
37943;SDS011;23767;42.024;23.086;2023-04-26T04:00:40;2.70;;;1.10;;
37943;SDS011;23767;42.024;23.086;2023-04-26T04:03:07;2.08;;;1.20;;
37943;SDS011;23767;42.024;23.086;2023-04-26T04:05:33;2.25;;;1.05;;
37943;SDS011;23767;42.024;23.086;2023-04-26T04:07:59;3.45;;;1.27;;
37943;SDS011;23767;42.024;23.086;2023-04-26T04:10:25;1.95;;;1.00;;
37943;SDS011;23767;42.024;23.086;2023-04-26T04:12:52;4.07;;;1.20;;
37943;SDS011;23767;42.024;23.086;2023-04-26T04:15:18;1.75;;;1.10;;
37943;SDS011;23767;42.024;23.086;2023-04-26T04:17:45;2.25;;;1.15;;
37943;SDS011;23767;42.024;23.086;2023-04-26T04:20:11;4.20;;;1.20;;
37943;SDS011;23767;42.024;23.086;2023-04-26T04:22:37;5.43;;;1.42;;
37943;SDS011;23767;42.024;23.086;2023-04-26T04:25:07;4.57;;;1.90;;
37943;SDS011;23767;42.024;23.086;2023-04-26T04:27:37;4.38;;;1.70;;
37943;SDS011;23767;42.024;23.086;2023-04-26T04:30:06;5.22;;;1.80;;
37943;SDS011;23767;42.024;23.086;2023-04-26T04:32:33;4.00;;;2.10;;
37943;SDS011;23767;42.024;23.086;2023-04-26T04:34:59;5.78;;;3.22;;
37943;SDS011;23767;42.024;23.086;2023-04-26T04:37:25;6.20;;;4.25;;
37943;SDS011;23767;42.024;23.086;2023-04-26T04:39:52;7.20;;;4.55;;
37943;SDS011;23767;42.024;23.086;2023-04-26T04:42:19;7.88;;;4.90;;
37943;SDS011;23767;42.024;23.086;2023-04-26T04:44:45;5.78;;;3.90;;
37943;SDS011;23767;42.024;23.086;2023-04-26T04:47:11;7.10;;;5.32;;
37943;SDS011;23767;42.024;23.086;2023-04-26T04:49:37;9.95;;;8.43;;
37943;SDS011;23767;42.024;23.086;2023-04-26T04:52:04;9.55;;;6.97;;
37943;SDS011;23767;42.024;23.086;2023-04-26T04:54:30;10.43;;;8.00;;
37943;SDS011;23767;42.024;23.086;2023-04-26T04:56:56;10.30;;;7.88;;
37943;SDS011;23767;42.024;23.086;2023-04-26T04:59:23;9.57;;;8.27;;
37943;SDS011;23767;42.024;23.086;2023-04-26T05:01:49;9.98;;;7.88;;
37943;SDS011;23767;42.024;23.086;2023-04-26T05:04:15;11.13;;;9.32;;
37943;SDS011;23767;42.024;23.086;2023-04-26T05:06:41;12.45;;;10.10;;
37943;SDS011;23767;42.024;23.086;2023-04-26T05:09:08;13.48;;;10.60;;
37943;SDS011;23767;42.024;23.086;2023-04-26T05:11:35;13.98;;;12.50;;
37943;SDS011;23767;42.024;23.086;2023-04-26T05:14:01;14.75;;;12.48;;
37943;SDS011;23767;42.024;23.086;2023-04-26T05:16:27;17.90;;;13.93;;
37943;SDS011;23767;42.024;23.086;2023-04-26T05:18:53;12.88;;;11.02;;
37943;SDS011;23767;42.024;23.086;2023-04-26T05:21:20;13.57;;;9.80;;
37943;SDS011;23767;42.024;23.086;2023-04-26T05:23:47;13.38;;;9.43;;
37943;SDS011;23767;42.024;23.086;2023-04-26T05:26:14;12.75;;;8.40;;
37943;SDS011;23767;42.024;23.086;2023-04-26T05:28:40;15.65;;;8.77;;
37943;SDS011;23767;42.024;23.086;2023-04-26T05:31:07;10.68;;;7.93;;
37943;SDS011;23767;42.024;23.086;2023-04-26T05:33:33;12.98;;;8.50;;
37943;SDS011;23767;42.024;23.086;2023-04-26T05:35:59;10.57;;;8.23;;
37943;SDS011;23767;42.024;23.086;2023-04-26T05:38:26;15.05;;;8.20;;
37943;SDS011;23767;42.024;23.086;2023-04-26T05:40:52;12.52;;;8.50;;
37943;SDS011;23767;42.024;23.086;2023-04-26T05:43:18;11.32;;;7.25;;
37943;SDS011;23767;42.024;23.086;2023-04-26T05:45:51;8.60;;;6.65;;
37943;SDS011;23767;42.024;23.086;2023-04-26T05:48:18;11.45;;;7.70;;
37943;SDS011;23767;42.024;23.086;2023-04-26T05:50:45;10.50;;;7.22;;
37943;SDS011;23767;42.024;23.086;2023-04-26T05:53:11;11.40;;;7.72;;
37943;SDS011;23767;42.024;23.086;2023-04-26T05:55:37;11.57;;;7.18;;
37943;SDS011;23767;42.024;23.086;2023-04-26T05:58:03;10.27;;;7.30;;
37943;SDS011;23767;42.024;23.086;2023-04-26T06:00:29;10.82;;;7.85;;
37943;SDS011;23767;42.024;23.086;2023-04-26T06:02:55;9.40;;;7.45;;
37943;SDS011;23767;42.024;23.086;2023-04-26T06:05:22;11.68;;;7.40;;
37943;SDS011;23767;42.024;23.086;2023-04-26T06:07:48;11.75;;;6.72;;
37943;SDS011;23767;42.024;23.086;2023-04-26T06:10:14;11.15;;;6.38;;
37943;SDS011;23767;42.024;23.086;2023-04-26T06:12:40;11.40;;;6.50;;
37943;SDS011;23767;42.024;23.086;2023-04-26T06:15:06;14.23;;;6.28;;
37943;SDS011;23767;42.024;23.086;2023-04-26T06:17:32;14.88;;;6.07;;
37943;SDS011;23767;42.024;23.086;2023-04-26T06:19:58;18.65;;;6.70;;
37943;SDS011;23767;42.024;23.086;2023-04-26T06:22:25;16.90;;;6.70;;
37943;SDS011;23767;42.024;23.086;2023-04-26T06:24:51;16.95;;;5.60;;
37943;SDS011;23767;42.024;23.086;2023-04-26T06:27:17;19.48;;;6.63;;
37943;SDS011;23767;42.024;23.086;2023-04-26T06:29:43;20.00;;;6.55;;
37943;SDS011;23767;42.024;23.086;2023-04-26T06:32:10;14.77;;;5.72;;
37943;SDS011;23767;42.024;23.086;2023-04-26T06:34:36;13.88;;;5.90;;
37943;SDS011;23767;42.024;23.086;2023-04-26T06:37:03;13.70;;;5.18;;
37943;SDS011;23767;42.024;23.086;2023-04-26T06:39:29;11.38;;;5.40;;
37943;SDS011;23767;42.024;23.086;2023-04-26T06:41:55;12.90;;;5.93;;
37943;SDS011;23767;42.024;23.086;2023-04-26T06:44:21;10.82;;;5.00;;
37943;SDS011;23767;42.024;23.086;2023-04-26T06:46:47;8.25;;;4.72;;
37943;SDS011;23767;42.024;23.086;2023-04-26T06:49:16;7.88;;;4.72;;
37943;SDS011;23767;42.024;23.086;2023-04-26T06:51:42;14.68;;;5.68;;
37943;SDS011;23767;42.024;23.086;2023-04-26T06:54:08;9.05;;;5.30;;
37943;SDS011;23767;42.024;23.086;2023-04-26T06:56:34;10.60;;;5.55;;
37943;SDS011;23767;42.024;23.086;2023-04-26T06:59:01;9.10;;;5.20;;
37943;SDS011;23767;42.024;23.086;2023-04-26T07:01:28;10.57;;;5.32;;
37943;SDS011;23767;42.024;23.086;2023-04-26T07:03:57;10.13;;;5.60;;
37943;SDS011;23767;42.024;23.086;2023-04-26T07:06:24;10.40;;;5.65;;
37943;SDS011;23767;42.024;23.086;2023-04-26T07:08:50;12.25;;;5.60;;
37943;SDS011;23767;42.024;23.086;2023-04-26T07:11:16;8.10;;;5.43;;
37943;SDS011;23767;42.024;23.086;2023-04-26T07:13:42;8.63;;;5.40;;
37943;SDS011;23767;42.024;23.086;2023-04-26T07:16:08;10.65;;;6.00;;
37943;SDS011;23767;42.024;23.086;2023-04-26T07:18:34;10.50;;;5.97;;
37943;SDS011;23767;42.024;23.086;2023-04-26T07:21:00;10.35;;;5.57;;
37943;SDS011;23767;42.024;23.086;2023-04-26T07:23:27;10.32;;;6.30;;
37943;SDS011;23767;42.024;23.086;2023-04-26T07:25:54;9.13;;;5.43;;
37943;SDS011;23767;42.024;23.086;2023-04-26T07:28:20;9.45;;;5.78;;
37943;SDS011;23767;42.024;23.086;2023-04-26T07:30:46;10.30;;;6.18;;
37943;SDS011;23767;42.024;23.086;2023-04-26T07:33:12;8.20;;;5.00;;
37943;SDS011;23767;42.024;23.086;2023-04-26T07:35:38;8.73;;;4.75;;
37943;SDS011;23767;42.024;23.086;2023-04-26T07:38:04;9.38;;;5.00;;
37943;SDS011;23767;42.024;23.086;2023-04-26T07:40:31;8.25;;;4.88;;
37943;SDS011;23767;42.024;23.086;2023-04-26T07:42:57;9.82;;;5.93;;
37943;SDS011;23767;42.024;23.086;2023-04-26T07:45:23;9.88;;;5.68;;
37943;SDS011;23767;42.024;23.086;2023-04-26T07:47:49;9.00;;;5.50;;
37943;SDS011;23767;42.024;23.086;2023-04-26T07:50:15;9.70;;;5.72;;
37943;SDS011;23767;42.024;23.086;2023-04-26T07:52:41;7.78;;;4.88;;
37943;SDS011;23767;42.024;23.086;2023-04-26T07:55:08;7.70;;;5.20;;
37943;SDS011;23767;42.024;23.086;2023-04-26T07:57:34;7.00;;;4.57;;
37943;SDS011;23767;42.024;23.086;2023-04-26T08:00:01;10.18;;;4.57;;
37943;SDS011;23767;42.024;23.086;2023-04-26T08:02:27;10.30;;;5.20;;
37943;SDS011;23767;42.024;23.086;2023-04-26T08:04:53;8.95;;;5.22;;
37943;SDS011;23767;42.024;23.086;2023-04-26T08:07:21;5.90;;;4.18;;
37943;SDS011;23767;42.024;23.086;2023-04-26T08:09:47;8.13;;;4.78;;
37943;SDS011;23767;42.024;23.086;2023-04-26T08:12:13;10.13;;;6.75;;
37943;SDS011;23767;42.024;23.086;2023-04-26T08:14:40;11.18;;;5.95;;
37943;SDS011;23767;42.024;23.086;2023-04-26T08:17:06;9.05;;;5.80;;
37943;SDS011;23767;42.024;23.086;2023-04-26T08:19:35;7.40;;;5.00;;
37943;SDS011;23767;42.024;23.086;2023-04-26T08:22:02;6.20;;;4.60;;
37943;SDS011;23767;42.024;23.086;2023-04-26T08:24:28;6.63;;;4.18;;
37943;SDS011;23767;42.024;23.086;2023-04-26T08:26:54;5.65;;;3.88;;
37943;SDS011;23767;42.024;23.086;2023-04-26T08:29:22;4.68;;;3.30;;
37943;SDS011;23767;42.024;23.086;2023-04-26T08:31:48;9.73;;;3.45;;
37943;SDS011;23767;42.024;23.086;2023-04-26T08:34:14;5.10;;;3.33;;
37943;SDS011;23767;42.024;23.086;2023-04-26T08:36:41;5.28;;;3.40;;
37943;SDS011;23767;42.024;23.086;2023-04-26T08:39:07;6.03;;;3.70;;
37943;SDS011;23767;42.024;23.086;2023-04-26T08:41:52;4.95;;;3.00;;
37943;SDS011;23767;42.024;23.086;2023-04-26T08:44:21;5.97;;;3.40;;
37943;SDS011;23767;42.024;23.086;2023-04-26T08:47:05;4.43;;;2.65;;
37943;SDS011;23767;42.024;23.086;2023-04-26T08:49:41;5.05;;;3.22;;
37943;SDS011;23767;42.024;23.086;2023-04-26T08:52:08;5.45;;;2.78;;
37943;SDS011;23767;42.024;23.086;2023-04-26T08:54:35;6.05;;;3.30;;
37943;SDS011;23767;42.024;23.086;2023-04-26T08:57:02;9.15;;;3.70;;
37943;SDS011;23767;42.024;23.086;2023-04-26T08:59:31;5.20;;;3.10;;
37943;SDS011;23767;42.024;23.086;2023-04-26T09:01:58;5.47;;;3.20;;
37943;SDS011;23767;42.024;23.086;2023-04-26T09:04:24;6.32;;;3.13;;
37943;SDS011;23767;42.024;23.086;2023-04-26T09:06:50;6.03;;;2.80;;
37943;SDS011;23767;42.024;23.086;2023-04-26T09:09:18;4.57;;;2.60;;
37943;SDS011;23767;42.024;23.086;2023-04-26T09:11:55;4.68;;;2.38;;
37943;SDS011;23767;42.024;23.086;2023-04-26T09:14:22;8.23;;;2.80;;
37943;SDS011;23767;42.024;23.086;2023-04-26T09:16:49;6.55;;;2.92;;
37943;SDS011;23767;42.024;23.086;2023-04-26T09:19:16;5.43;;;2.55;;
37943;SDS011;23767;42.024;23.086;2023-04-26T09:21:43;6.10;;;2.60;;
37943;SDS011;23767;42.024;23.086;2023-04-26T09:24:09;5.90;;;3.20;;
37943;SDS011;23767;42.024;23.086;2023-04-26T09:26:35;4.93;;;2.42;;
37943;SDS011;23767;42.024;23.086;2023-04-26T09:29:14;5.95;;;2.95;;
37943;SDS011;23767;42.024;23.086;2023-04-26T09:31:42;5.57;;;2.53;;
37943;SDS011;23767;42.024;23.086;2023-04-26T09:34:12;3.80;;;2.10;;
37943;SDS011;23767;42.024;23.086;2023-04-26T09:36:52;4.13;;;2.40;;
37943;SDS011;23767;42.024;23.086;2023-04-26T09:39:34;5.55;;;2.65;;
37943;SDS011;23767;42.024;23.086;2023-04-26T09:42:02;4.15;;;2.65;;
37943;SDS011;23767;42.024;23.086;2023-04-26T09:44:28;6.18;;;2.70;;
37943;SDS011;23767;42.024;23.086;2023-04-26T09:47:10;5.13;;;2.50;;
37943;SDS011;23767;42.024;23.086;2023-04-26T09:49:47;4.03;;;2.53;;
37943;SDS011;23767;42.024;23.086;2023-04-26T09:52:14;5.88;;;2.63;;
37943;SDS011;23767;42.024;23.086;2023-04-26T09:57:13;4.85;;;3.05;;
37943;SDS011;23767;42.024;23.086;2023-04-26T10:02:09;5.32;;;3.00;;
37943;SDS011;23767;42.024;23.086;2023-04-26T10:04:35;6.07;;;3.42;;
37943;SDS011;23767;42.024;23.086;2023-04-26T10:07:01;4.38;;;2.90;;
37943;SDS011;23767;42.024;23.086;2023-04-26T10:09:29;5.82;;;3.28;;
37943;SDS011;23767;42.024;23.086;2023-04-26T10:11:55;4.65;;;2.90;;
37943;SDS011;23767;42.024;23.086;2023-04-26T10:14:22;5.57;;;2.88;;
37943;SDS011;23767;42.024;23.086;2023-04-26T10:16:48;4.97;;;2.80;;
37943;SDS011;23767;42.024;23.086;2023-04-26T10:19:14;6.10;;;2.70;;
37943;SDS011;23767;42.024;23.086;2023-04-26T10:21:40;5.55;;;2.42;;
37943;SDS011;23767;42.024;23.086;2023-04-26T10:24:08;6.35;;;2.47;;
37943;SDS011;23767;42.024;23.086;2023-04-26T10:26:53;4.18;;;2.30;;
37943;SDS011;23767;42.024;23.086;2023-04-26T10:29:21;4.22;;;2.40;;
37943;SDS011;23767;42.024;23.086;2023-04-26T10:34:26;4.43;;;2.00;;
37943;SDS011;23767;42.024;23.086;2023-04-26T10:39:34;4.18;;;2.08;;
37943;SDS011;23767;42.024;23.086;2023-04-26T10:42:36;4.22;;;2.30;;
37943;SDS011;23767;42.024;23.086;2023-04-26T10:47:29;4.90;;;2.25;;
37943;SDS011;23767;42.024;23.086;2023-04-26T10:50:10;5.63;;;2.40;;
37943;SDS011;23767;42.024;23.086;2023-04-26T10:55:37;5.63;;;2.40;;
37943;SDS011;23767;42.024;23.086;2023-04-26T10:58:15;7.28;;;1.80;;
37943;SDS011;23767;42.024;23.086;2023-04-26T11:03:32;4.37;;;2.20;;
37943;SDS011;23767;42.024;23.086;2023-04-26T11:05:58;3.70;;;2.00;;
37943;SDS011;23767;42.024;23.086;2023-04-26T11:08:28;4.43;;;1.95;;
37943;SDS011;23767;42.024;23.086;2023-04-26T11:13:31;3.72;;;2.10;;
37943;SDS011;23767;42.024;23.086;2023-04-26T11:16:00;5.03;;;2.22;;
37943;SDS011;23767;42.024;23.086;2023-04-26T11:18:33;6.80;;;2.55;;
37943;SDS011;23767;42.024;23.086;2023-04-26T11:21:00;4.28;;;2.20;;
37943;SDS011;23767;42.024;23.086;2023-04-26T11:23:27;3.58;;;1.98;;
37943;SDS011;23767;42.024;23.086;2023-04-26T11:25:57;4.55;;;2.25;;
37943;SDS011;23767;42.024;23.086;2023-04-26T11:28:24;4.75;;;2.38;;
37943;SDS011;23767;42.024;23.086;2023-04-26T11:30:50;5.90;;;2.20;;
37943;SDS011;23767;42.024;23.086;2023-04-26T11:33:17;5.60;;;2.60;;
37943;SDS011;23767;42.024;23.086;2023-04-26T11:35:44;4.60;;;2.40;;
37943;SDS011;23767;42.024;23.086;2023-04-26T11:38:10;5.20;;;2.20;;
37943;SDS011;23767;42.024;23.086;2023-04-26T11:40:37;4.60;;;2.35;;
37943;SDS011;23767;42.024;23.086;2023-04-26T11:43:03;4.38;;;2.10;;
37943;SDS011;23767;42.024;23.086;2023-04-26T11:45:34;4.15;;;1.80;;
37943;SDS011;23767;42.024;23.086;2023-04-26T11:48:04;3.70;;;2.10;;
37943;SDS011;23767;42.024;23.086;2023-04-26T11:50:31;4.68;;;2.10;;
37943;SDS011;23767;42.024;23.086;2023-04-26T11:52:58;4.25;;;2.13;;
37943;SDS011;23767;42.024;23.086;2023-04-26T11:55:27;5.13;;;2.42;;
37943;SDS011;23767;42.024;23.086;2023-04-26T11:57:55;4.38;;;2.30;;
37943;SDS011;23767;42.024;23.086;2023-04-26T12:00:22;4.45;;;2.05;;
37943;SDS011;23767;42.024;23.086;2023-04-26T12:02:49;6.35;;;2.53;;
37943;SDS011;23767;42.024;23.086;2023-04-26T12:05:20;5.07;;;2.17;;
37943;SDS011;23767;42.024;23.086;2023-04-26T12:07:48;6.45;;;2.10;;
37943;SDS011;23767;42.024;23.086;2023-04-26T12:10:16;6.85;;;2.85;;
37943;SDS011;23767;42.024;23.086;2023-04-26T12:12:43;5.22;;;2.63;;
37943;SDS011;23767;42.024;23.086;2023-04-26T12:15:10;4.80;;;2.35;;
37943;SDS011;23767;42.024;23.086;2023-04-26T12:17:36;6.57;;;2.10;;
37943;SDS011;23767;42.024;23.086;2023-04-26T12:20:11;4.57;;;1.83;;
37943;SDS011;23767;42.024;23.086;2023-04-26T12:22:37;4.53;;;1.90;;
37943;SDS011;23767;42.024;23.086;2023-04-26T12:25:04;5.43;;;1.98;;
37943;SDS011;23767;42.024;23.086;2023-04-26T12:27:30;5.10;;;1.67;;
37943;SDS011;23767;42.024;23.086;2023-04-26T12:29:56;4.30;;;1.70;;
37943;SDS011;23767;42.024;23.086;2023-04-26T12:32:22;11.02;;;1.88;;
37943;SDS011;23767;42.024;23.086;2023-04-26T12:34:48;3.38;;;1.67;;
37943;SDS011;23767;42.024;23.086;2023-04-26T12:37:15;5.20;;;2.15;;
37943;SDS011;23767;42.024;23.086;2023-04-26T12:39:41;4.72;;;1.85;;
37943;SDS011;23767;42.024;23.086;2023-04-26T12:42:08;5.28;;;2.03;;
37943;SDS011;23767;42.024;23.086;2023-04-26T12:44:34;5.78;;;2.20;;
37943;SDS011;23767;42.024;23.086;2023-04-26T12:47:00;4.55;;;1.95;;
37943;SDS011;23767;42.024;23.086;2023-04-26T12:49:26;5.90;;;2.00;;
37943;SDS011;23767;42.024;23.086;2023-04-26T12:51:53;4.72;;;2.08;;
37943;SDS011;23767;42.024;23.086;2023-04-26T12:54:19;3.53;;;2.00;;
37943;SDS011;23767;42.024;23.086;2023-04-26T12:56:46;6.18;;;1.95;;
37943;SDS011;23767;42.024;23.086;2023-04-26T12:59:12;4.10;;;1.90;;
37943;SDS011;23767;42.024;23.086;2023-04-26T13:01:38;5.35;;;2.13;;
37943;SDS011;23767;42.024;23.086;2023-04-26T13:04:05;5.13;;;2.10;;
37943;SDS011;23767;42.024;23.086;2023-04-26T13:06:31;5.40;;;2.60;;
37943;SDS011;23767;42.024;23.086;2023-04-26T13:08:57;4.20;;;2.38;;
37943;SDS011;23767;42.024;23.086;2023-04-26T13:11:23;4.53;;;2.30;;
37943;SDS011;23767;42.024;23.086;2023-04-26T13:13:49;5.25;;;2.45;;
37943;SDS011;23767;42.024;23.086;2023-04-26T13:16:16;3.78;;;2.25;;
37943;SDS011;23767;42.024;23.086;2023-04-26T13:18:42;6.30;;;2.83;;
37943;SDS011;23767;42.024;23.086;2023-04-26T13:21:08;5.60;;;2.45;;
37943;SDS011;23767;42.024;23.086;2023-04-26T13:23:34;4.35;;;2.30;;
37943;SDS011;23767;42.024;23.086;2023-04-26T13:26:00;5.72;;;2.70;;
37943;SDS011;23767;42.024;23.086;2023-04-26T13:28:26;4.38;;;2.40;;
37943;SDS011;23767;42.024;23.086;2023-04-26T13:30:52;5.53;;;2.45;;
37943;SDS011;23767;42.024;23.086;2023-04-26T13:33:19;5.40;;;2.60;;
37943;SDS011;23767;42.024;23.086;2023-04-26T13:35:45;4.32;;;2.72;;
37943;SDS011;23767;42.024;23.086;2023-04-26T13:38:11;4.50;;;3.00;;
37943;SDS011;23767;42.024;23.086;2023-04-26T13:40:37;6.35;;;2.88;;
37943;SDS011;23767;42.024;23.086;2023-04-26T13:43:03;7.55;;;3.00;;
37943;SDS011;23767;42.024;23.086;2023-04-26T13:45:29;7.03;;;2.88;;
37943;SDS011;23767;42.024;23.086;2023-04-26T13:47:55;5.07;;;2.92;;
37943;SDS011;23767;42.024;23.086;2023-04-26T13:50:21;4.60;;;2.60;;
37943;SDS011;23767;42.024;23.086;2023-04-26T13:52:47;4.32;;;2.50;;
37943;SDS011;23767;42.024;23.086;2023-04-26T13:55:16;4.88;;;2.63;;
37943;SDS011;23767;42.024;23.086;2023-04-26T13:57:42;4.97;;;2.97;;
37943;SDS011;23767;42.024;23.086;2023-04-26T14:00:08;4.43;;;2.50;;
37943;SDS011;23767;42.024;23.086;2023-04-26T14:02:35;4.18;;;2.10;;
37943;SDS011;23767;42.024;23.086;2023-04-26T14:05:01;4.85;;;2.67;;
37943;SDS011;23767;42.024;23.086;2023-04-26T14:07:28;5.13;;;2.72;;
37943;SDS011;23767;42.024;23.086;2023-04-26T14:09:54;4.07;;;2.70;;
37943;SDS011;23767;42.024;23.086;2023-04-26T14:12:20;4.60;;;2.60;;
37943;SDS011;23767;42.024;23.086;2023-04-26T14:14:46;4.60;;;2.95;;
37943;SDS011;23767;42.024;23.086;2023-04-26T14:17:13;4.65;;;3.17;;
37943;SDS011;23767;42.024;23.086;2023-04-26T14:19:39;4.30;;;2.90;;
37943;SDS011;23767;42.024;23.086;2023-04-26T14:22:06;5.30;;;3.20;;
37943;SDS011;23767;42.024;23.086;2023-04-26T14:24:36;4.63;;;2.85;;
37943;SDS011;23767;42.024;23.086;2023-04-26T14:27:02;4.28;;;2.70;;
37943;SDS011;23767;42.024;23.086;2023-04-26T14:29:28;4.32;;;2.63;;
37943;SDS011;23767;42.024;23.086;2023-04-26T14:31:54;4.95;;;2.85;;
37943;SDS011;23767;42.024;23.086;2023-04-26T14:34:20;3.67;;;2.50;;
37943;SDS011;23767;42.024;23.086;2023-04-26T14:36:47;4.45;;;2.70;;
37943;SDS011;23767;42.024;23.086;2023-04-26T14:39:13;4.65;;;2.80;;
37943;SDS011;23767;42.024;23.086;2023-04-26T14:41:40;4.43;;;2.35;;
37943;SDS011;23767;42.024;23.086;2023-04-26T14:44:07;5.20;;;3.17;;
37943;SDS011;23767;42.024;23.086;2023-04-26T14:46:34;7.00;;;3.60;;
37943;SDS011;23767;42.024;23.086;2023-04-26T14:49:01;5.35;;;3.22;;
37943;SDS011;23767;42.024;23.086;2023-04-26T14:51:27;4.43;;;2.88;;
37943;SDS011;23767;42.024;23.086;2023-04-26T14:53:53;5.80;;;3.20;;
37943;SDS011;23767;42.024;23.086;2023-04-26T14:56:19;5.07;;;2.95;;